Time;durP1;ratioP1;P1;durP2;ratioP2;P2;SDS_P1;SDS_P2;PMS_P1;PMS_P2;Temp;Humidity;BMP_temperature;BMP_pressure;BME280_temperature;BME280_humidity;BME280_pressure;Samples;Min_cycle;Max_cycle;Signal;HPM_P1;HPM_P2
2024/02/23 00:01:56;0.00;0.00;0.62;0.00;0.00;0.62;3.23;1.40;;;23.20;25.50;;;;;;2260540;61;20414;-66
2024/02/23 00:04:41;0.00;0.00;0.62;0.00;0.00;0.62;2.63;1.60;;;23.20;25.50;;;;;;2263315;61;20940;-66
2024/02/23 00:07:26;0.00;0.00;0.62;0.00;0.00;0.62;1.87;1.00;;;23.20;25.50;;;;;;2263818;61;20383;-67
2024/02/23 00:10:11;0.00;0.00;0.62;0.00;0.00;0.62;2.63;1.30;;;23.20;25.40;;;;;;2263907;61;20398;-66
2024/02/23 00:12:56;0.00;0.00;0.62;0.00;0.00;0.62;2.70;1.20;;;23.20;25.40;;;;;;2259787;61;20431;-66
2024/02/23 00:15:43;0.00;0.00;0.62;0.00;0.00;0.62;2.97;1.30;;;23.20;25.30;;;;;;2259845;61;20380;-66
2024/02/23 00:18:28;0.00;0.00;0.62;0.00;0.00;0.62;2.50;1.17;;;23.20;25.30;;;;;;2259372;61;20860;-67
2024/02/23 00:21:12;0.00;0.00;0.62;0.00;0.00;0.62;2.63;1.60;;;23.20;25.30;;;;;;2259530;61;20380;-66
2024/02/23 00:23:57;0.00;0.00;0.62;0.00;0.00;0.62;2.93;1.23;;;23.20;25.30;;;;;;2259637;61;20376;-66
2024/02/23 00:26:42;0.00;0.00;0.62;0.00;0.00;0.62;2.53;1.40;;;23.20;25.20;;;;;;2259013;61;20365;-67
2024/02/23 00:29:26;0.00;0.00;0.62;0.00;0.00;0.62;2.50;1.40;;;23.20;25.20;;;;;;2259540;61;20400;-66
2024/02/23 00:32:12;0.00;0.00;0.62;0.00;0.00;0.62;2.57;1.50;;;23.20;25.10;;;;;;2259818;61;20892;-66
2024/02/23 00:34:57;0.00;0.00;0.62;0.00;0.00;0.62;3.60;1.67;;;23.10;25.00;;;;;;2259013;61;20441;-66
2024/02/23 00:37:42;0.00;0.00;0.62;0.00;0.00;0.62;2.80;1.70;;;23.10;25.00;;;;;;2259764;61;20914;-67
2024/02/23 00:40:27;0.00;0.00;0.62;0.00;0.00;0.62;3.13;1.87;;;23.10;25.10;;;;;;2259885;61;20996;-66
2024/02/23 00:43:11;0.00;0.00;0.62;0.00;0.00;0.62;2.17;1.13;;;23.10;25.10;;;;;;2259335;61;20887;-67
2024/02/23 00:45:56;0.00;0.00;0.62;0.00;0.00;0.62;2.80;1.53;;;23.10;25.10;;;;;;2256283;61;20481;-67
2024/02/23 00:48:42;0.00;0.00;0.62;0.00;0.00;0.62;2.13;1.27;;;23.10;25.10;;;;;;2610540;45;20386;-67
2024/02/23 00:51:27;0.00;0.00;0.62;0.00;0.00;0.62;3.00;1.70;;;23.10;25.10;;;;;;2255043;61;20366;-67
2024/02/23 00:54:11;0.00;0.00;0.62;0.00;0.00;0.62;3.10;1.53;;;23.10;25.00;;;;;;2255474;61;20412;-67
2024/02/23 00:56:55;0.00;0.00;0.62;0.00;0.00;0.62;1.90;1.13;;;23.10;24.90;;;;;;2255073;61;20416;-68
2024/02/23 00:59:40;0.00;0.00;0.62;0.00;0.00;0.62;2.30;1.30;;;23.10;24.90;;;;;;2255633;61;20361;-67
2024/02/23 01:02:25;0.00;0.00;0.62;0.00;0.00;0.62;2.27;1.03;;;23.00;24.80;;;;;;2255697;61;20893;-67
2024/02/23 01:05:11;0.00;0.00;0.62;0.00;0.00;0.62;2.03;1.20;;;23.00;24.80;;;;;;2255108;61;20440;-67
2024/02/23 01:07:55;0.00;0.00;0.62;0.00;0.00;0.62;2.13;1.30;;;23.00;24.80;;;;;;2255520;61;20852;-67
2024/02/23 01:10:40;0.00;0.00;0.62;0.00;0.00;0.62;2.00;1.20;;;23.00;24.80;;;;;;2255295;61;20878;-67
2024/02/23 01:13:24;0.00;0.00;0.62;0.00;0.00;0.62;2.30;0.97;;;23.00;24.80;;;;;;2263239;61;20375;-67
2024/02/23 01:16:09;0.00;0.00;0.62;0.00;0.00;0.62;1.80;1.07;;;23.00;24.80;;;;;;2263532;61;20368;-67
2024/02/23 01:18:53;0.00;0.00;0.62;0.00;0.00;0.62;2.30;1.03;;;23.00;24.70;;;;;;2263157;61;20356;-67
2024/02/23 01:21:39;0.00;0.00;0.62;0.00;0.00;0.62;1.73;1.03;;;23.00;24.60;;;;;;2263736;61;20383;-67
2024/02/23 01:24:26;0.00;0.00;0.62;0.00;0.00;0.62;2.30;1.20;;;23.00;24.60;;;;;;2263466;61;20392;-67
2024/02/23 01:27:10;0.00;0.00;0.62;0.00;0.00;0.62;2.00;0.90;;;23.00;24.60;;;;;;2262865;61;20383;-67
2024/02/23 01:29:55;0.00;0.00;0.62;0.00;0.00;0.62;2.13;1.00;;;23.00;24.60;;;;;;2263522;61;20418;-68
2024/02/23 01:32:40;0.00;0.00;0.62;0.00;0.00;0.62;1.70;0.80;;;22.90;24.50;;;;;;2260182;61;20367;-67
2024/02/23 01:35:25;0.00;0.00;0.62;0.00;0.00;0.62;1.90;0.93;;;22.90;24.50;;;;;;2263393;61;20446;-67
2024/02/23 01:38:11;0.00;0.00;0.62;0.00;0.00;0.62;2.00;1.00;;;22.90;24.50;;;;;;2263474;61;20392;-67
2024/02/23 01:40:57;0.00;0.00;0.62;0.00;0.00;0.62;1.90;1.03;;;22.90;24.50;;;;;;2263054;61;20403;-67
2024/02/23 01:43:42;0.00;0.00;0.62;0.00;0.00;0.62;2.10;1.00;;;22.90;24.50;;;;;;2263391;61;20460;-67
2024/02/23 01:46:26;0.00;0.00;0.62;0.00;0.00;0.62;1.70;0.90;;;22.90;24.50;;;;;;2262775;61;20364;-67
2024/02/23 01:49:11;0.00;0.00;0.62;0.00;0.00;0.62;1.97;1.00;;;22.90;24.50;;;;;;2258856;61;20443;-67
2024/02/23 01:51:57;0.00;0.00;0.62;0.00;0.00;0.62;2.17;1.20;;;22.90;24.50;;;;;;2259554;61;20900;-67
2024/02/23 01:54:43;0.00;0.00;0.62;0.00;0.00;0.62;1.60;0.90;;;22.90;24.60;;;;;;2259284;61;20916;-68
2024/02/23 01:57:28;0.00;0.00;0.62;0.00;0.00;0.62;1.43;0.77;;;22.90;24.60;;;;;;2259187;61;20380;-67
2024/02/23 02:00:16;0.00;0.00;0.62;0.00;0.00;0.62;1.50;1.00;;;22.80;24.50;;;;;;2259405;61;20401;-67
2024/02/23 02:03:08;0.00;0.00;0.62;0.00;0.00;0.62;1.50;0.70;;;22.80;24.60;;;;;;2255561;61;20739;-67
2024/02/23 02:05:53;0.00;0.00;0.62;0.00;0.00;0.62;1.60;0.80;;;22.80;24.60;;;;;;2256050;61;20384;-67
2024/02/23 02:08:39;0.00;0.00;0.62;0.00;0.00;0.62;1.80;0.80;;;22.80;24.70;;;;;;2258867;61;20489;-68
2024/02/23 02:11:25;0.00;0.00;0.62;0.00;0.00;0.62;2.10;0.90;;;22.80;24.70;;;;;;2259966;61;20380;-67
2024/02/23 02:14:10;0.00;0.00;0.62;0.00;0.00;0.62;1.60;0.83;;;22.80;24.70;;;;;;2264203;61;20384;-67
2024/02/23 02:16:55;0.00;0.00;0.62;0.00;0.00;0.62;1.53;0.80;;;22.80;24.70;;;;;;2263574;61;20444;-68
2024/02/23 02:19:46;0.00;0.00;0.62;0.00;0.00;0.62;1.67;0.90;;;22.80;24.70;;;;;;2260375;61;20510;-68
2024/02/23 02:22:33;0.00;0.00;0.62;0.00;0.00;0.62;2.07;0.97;;;22.80;24.80;;;;;;2264242;61;20363;-66
2024/02/23 02:25:18;0.00;0.00;0.62;0.00;0.00;0.62;1.50;0.70;;;22.80;24.80;;;;;;2263456;61;20439;-68
2024/02/23 02:28:07;0.00;0.00;0.62;0.00;0.00;0.62;1.87;0.83;;;22.80;24.80;;;;;;2259191;61;20393;-69
2024/02/23 02:30:53;0.00;0.00;0.62;0.00;0.00;0.62;1.87;1.00;;;22.80;24.80;;;;;;2258991;61;20467;-66
2024/02/23 02:33:39;0.00;0.00;0.62;0.00;0.00;0.62;1.57;0.80;;;22.80;24.80;;;;;;2428060;53;20379;-66
2024/02/23 02:36:24;0.00;0.00;0.62;0.00;0.00;0.62;1.30;0.70;;;22.80;24.80;;;;;;2256289;61;20411;-67
2024/02/23 02:39:10;0.00;0.00;0.62;0.00;0.00;0.62;1.50;0.70;;;22.70;24.80;;;;;;2259139;61;20772;-66
2024/02/23 02:41:55;0.00;0.00;0.62;0.00;0.00;0.62;1.57;0.80;;;22.70;24.80;;;;;;2259025;61;20365;-67
2024/02/23 02:44:41;0.00;0.00;0.62;0.00;0.00;0.62;1.50;0.80;;;22.70;24.80;;;;;;2259033;61;20820;-68
2024/02/23 02:47:26;0.00;0.00;0.62;0.00;0.00;0.62;1.30;0.60;;;22.70;24.80;;;;;;2258335;61;20428;-68
2024/02/23 02:50:11;0.00;0.00;0.62;0.00;0.00;0.62;1.50;0.70;;;22.70;24.80;;;;;;2258974;61;20443;-69
2024/02/23 02:52:56;0.00;0.00;0.62;0.00;0.00;0.62;1.50;0.80;;;22.70;24.80;;;;;;2259511;61;20599;-69
2024/02/23 02:55:43;0.00;0.00;0.62;0.00;0.00;0.62;1.30;0.60;;;22.70;24.80;;;;;;2258772;61;20919;-69
2024/02/23 02:58:27;0.00;0.00;0.62;0.00;0.00;0.62;1.90;0.90;;;22.70;24.90;;;;;;2256102;61;20463;-69
2024/02/23 03:01:13;0.00;0.00;0.62;0.00;0.00;0.62;1.67;0.80;;;22.70;24.90;;;;;;2259301;61;20391;-69
2024/02/23 03:03:58;0.00;0.00;0.62;0.00;0.00;0.62;2.10;1.03;;;22.70;25.00;;;;;;2253018;61;20369;-68
2024/02/23 03:06:43;0.00;0.00;0.62;0.00;0.00;0.62;1.30;0.60;;;22.60;24.90;;;;;;2259313;61;20392;-67
2024/02/23 03:09:27;0.00;0.00;0.62;0.00;0.00;0.62;1.40;0.70;;;22.60;24.80;;;;;;2258802;61;20384;-68
2024/02/23 03:12:12;0.00;0.00;0.62;0.00;0.00;0.62;1.40;0.67;;;22.60;24.80;;;;;;2261314;61;20387;-66
2024/02/23 03:14:57;0.00;0.00;0.62;0.00;0.00;0.62;1.60;0.70;;;22.60;24.90;;;;;;2260253;61;20388;-67
2024/02/23 03:17:43;0.00;0.00;0.62;0.00;0.00;0.62;1.30;0.70;;;22.60;24.90;;;;;;2262769;61;20364;-66
2024/02/23 03:20:28;0.00;0.00;0.62;0.00;0.00;0.62;2.10;0.80;;;22.60;24.90;;;;;;2263312;61;20396;-69
2024/02/23 03:23:13;0.00;0.00;0.62;0.00;0.00;0.62;1.50;0.70;;;22.60;24.90;;;;;;2263276;61;20395;-69
2024/02/23 03:25:58;0.00;0.00;0.62;0.00;0.00;0.62;1.40;0.67;;;22.60;24.90;;;;;;2262762;61;20461;-68
2024/02/23 03:28:43;0.00;0.00;0.62;0.00;0.00;0.62;1.33;0.73;;;22.60;24.90;;;;;;2263253;61;20965;-67
2024/02/23 03:31:27;0.00;0.00;0.62;0.00;0.00;0.62;1.77;0.80;;;22.60;25.00;;;;;;2263138;61;20578;-67
2024/02/23 03:34:13;0.00;0.00;0.62;0.00;0.00;0.62;1.73;0.70;;;22.60;24.90;;;;;;2263046;61;20434;-67
2024/02/23 03:37:02;0.00;0.00;0.62;0.00;0.00;0.62;1.43;0.77;;;22.50;24.80;;;;;;2263358;61;20409;-67
2024/02/23 03:39:48;0.00;0.00;0.62;0.00;0.00;0.62;1.67;0.70;;;22.50;24.80;;;;;;2263328;61;20387;-68
2024/02/23 03:42:32;0.00;0.00;0.62;0.00;0.00;0.62;1.73;0.80;;;22.50;24.80;;;;;;2260850;61;21069;-67
2024/02/23 03:45:17;0.00;0.00;0.62;0.00;0.00;0.62;1.40;0.70;;;22.50;24.80;;;;;;2263907;61;20472;-67
2024/02/23 03:48:04;0.00;0.00;0.62;0.00;0.00;0.62;1.60;0.80;;;22.50;24.90;;;;;;2260038;61;20435;-67
2024/02/23 03:50:50;0.00;0.00;0.62;0.00;0.00;0.62;1.37;0.70;;;22.50;24.90;;;;;;2259986;61;20502;-67
2024/02/23 03:53:34;0.00;0.00;0.62;0.00;0.00;0.62;1.50;0.60;;;22.50;24.90;;;;;;2259294;61;20365;-67
2024/02/23 03:56:19;0.00;0.00;0.62;0.00;0.00;0.62;2.07;0.90;;;22.50;24.90;;;;;;2259512;61;20875;-67
2024/02/23 03:59:04;0.00;0.00;0.62;0.00;0.00;0.62;1.83;0.80;;;22.50;24.90;;;;;;2259782;61;20904;-67
2024/02/23 04:01:49;0.00;0.00;0.62;0.00;0.00;0.62;1.60;0.70;;;22.50;24.90;;;;;;2259442;61;20562;-68
2024/02/23 04:04:34;0.00;0.00;0.62;0.00;0.00;0.62;1.50;0.77;;;22.40;24.80;;;;;;2256451;61;20411;-67
2024/02/23 04:07:20;0.00;0.00;0.62;0.00;0.00;0.62;1.40;0.67;;;22.50;24.90;;;;;;2259811;61;20361;-67
2024/02/23 04:10:06;0.00;0.00;0.62;0.00;0.00;0.62;1.40;0.70;;;22.40;24.90;;;;;;2259287;61;20365;-67
2024/02/23 04:12:51;0.00;0.00;0.62;0.00;0.00;0.62;1.47;0.80;;;22.40;24.80;;;;;;2262988;61;20372;-68
2024/02/23 04:15:36;0.00;0.00;0.62;0.00;0.00;0.62;2.87;0.80;;;22.40;24.80;;;;;;2263544;61;20490;-68
2024/02/23 04:18:20;0.00;0.00;0.62;0.00;0.00;0.62;1.60;0.70;;;22.40;24.80;;;;;;2260561;61;20423;-67
2024/02/23 04:21:05;0.00;0.00;0.62;0.00;0.00;0.62;2.00;0.80;;;22.40;24.80;;;;;;2263715;61;20430;-67
2024/02/23 04:23:51;0.00;0.00;0.62;0.00;0.00;0.62;1.47;0.70;;;22.40;24.80;;;;;;2259564;61;20427;-67
2024/02/23 04:26:36;0.00;0.00;0.62;0.00;0.00;0.62;1.40;0.70;;;22.40;24.90;;;;;;2259640;61;20383;-67
2024/02/23 04:29:20;0.00;0.00;0.62;0.00;0.00;0.62;1.70;0.80;;;22.40;24.90;;;;;;2259692;61;20414;-67
2024/02/23 04:32:06;0.00;0.00;0.62;0.00;0.00;0.62;1.40;0.73;;;22.40;24.90;;;;;;2259192;61;20364;-67
2024/02/23 04:34:51;0.00;0.00;0.62;0.00;0.00;0.62;1.70;0.80;;;22.40;24.90;;;;;;2259519;61;20480;-67
2024/02/23 04:37:36;0.00;0.00;0.62;0.00;0.00;0.62;2.23;1.10;;;22.40;24.90;;;;;;2259304;61;20361;-66
2024/02/23 04:40:21;0.00;0.00;0.62;0.00;0.00;0.62;1.37;0.70;;;22.30;24.90;;;;;;2259668;61;20390;-67
2024/02/23 04:43:06;0.00;0.00;0.62;0.00;0.00;0.62;1.37;0.67;;;22.40;24.90;;;;;;2259414;61;20411;-67
2024/02/23 04:45:51;0.00;0.00;0.62;0.00;0.00;0.62;1.50;0.60;;;22.40;24.90;;;;;;2259144;61;20847;-67
2024/02/23 04:48:36;0.00;0.00;0.62;0.00;0.00;0.62;1.40;0.60;;;22.30;24.80;;;;;;2494634;53;20448;-67
2024/02/23 04:51:22;0.00;0.00;0.62;0.00;0.00;0.62;1.50;0.70;;;22.40;24.90;;;;;;2255727;61;20369;-67
2024/02/23 04:54:07;0.00;0.00;0.62;0.00;0.00;0.62;1.40;0.70;;;22.30;24.80;;;;;;2254462;61;20385;-68
2024/02/23 04:56:53;0.00;0.00;0.62;0.00;0.00;0.62;1.93;0.83;;;22.30;24.80;;;;;;2255424;61;20525;-68
2024/02/23 04:59:38;0.00;0.00;0.62;0.00;0.00;0.62;1.77;0.80;;;22.30;24.80;;;;;;2255433;61;20361;-69
2024/02/23 05:02:28;0.00;0.00;0.62;0.00;0.00;0.62;1.83;0.70;;;22.30;24.80;;;;;;2255478;61;20416;-67
2024/02/23 05:05:13;0.00;0.00;0.62;0.00;0.00;0.62;1.40;0.70;;;22.30;24.80;;;;;;2254916;61;20930;-67
2024/02/23 05:07:58;0.00;0.00;0.62;0.00;0.00;0.62;1.70;0.60;;;22.30;24.80;;;;;;2255028;61;20417;-68
2024/02/23 05:10:42;0.00;0.00;0.62;0.00;0.00;0.62;1.80;0.80;;;22.30;24.80;;;;;;2255434;61;20365;-68
2024/02/23 05:13:29;0.00;0.00;0.62;0.00;0.00;0.62;1.30;0.70;;;22.30;24.80;;;;;;2260337;61;20402;-67
2024/02/23 05:16:14;0.00;0.00;0.62;0.00;0.00;0.62;1.57;0.77;;;22.30;24.80;;;;;;2262982;61;20413;-66
2024/02/23 05:18:59;0.00;0.00;0.62;0.00;0.00;0.62;1.60;0.83;;;22.30;24.80;;;;;;2263752;61;20364;-67
2024/02/23 05:21:43;0.00;0.00;0.62;0.00;0.00;0.62;2.00;1.10;;;22.30;24.90;;;;;;2260296;61;20414;-67
2024/02/23 05:24:28;0.00;0.00;0.62;0.00;0.00;0.62;1.67;0.70;;;22.30;24.90;;;;;;2263202;61;20387;-67
2024/02/23 05:27:12;0.00;0.00;0.62;0.00;0.00;0.62;3.10;0.80;;;22.30;24.80;;;;;;2263453;61;20368;-67
2024/02/23 05:29:59;0.00;0.00;0.62;0.00;0.00;0.62;1.80;0.70;;;22.30;24.80;;;;;;2263037;61;20388;-67
2024/02/23 05:32:44;0.00;0.00;0.62;0.00;0.00;0.62;1.90;0.90;;;22.30;24.80;;;;;;2263440;61;20383;-67
2024/02/23 05:35:29;0.00;0.00;0.62;0.00;0.00;0.62;1.80;0.80;;;22.30;24.80;;;;;;2263728;61;20399;-67
2024/02/23 05:38:13;0.00;0.00;0.62;0.00;0.00;0.62;1.70;0.90;;;22.30;24.80;;;;;;2262774;61;20361;-68
2024/02/23 05:40:58;0.00;0.00;0.62;0.00;0.00;0.62;2.77;0.70;;;22.30;24.80;;;;;;2263551;61;20364;-67
2024/02/23 05:43:42;0.00;0.00;0.62;0.00;0.00;0.62;1.50;0.60;;;22.20;24.70;;;;;;2263442;61;20368;-67
2024/02/23 05:46:28;0.00;0.00;0.62;0.00;0.00;0.62;1.30;0.60;;;22.30;24.70;;;;;;2262656;61;20349;-67
2024/02/23 05:49:13;0.00;0.00;0.62;0.00;0.00;0.62;1.77;0.70;;;22.20;24.60;;;;;;2259480;61;20392;-67
2024/02/23 05:51:57;0.00;0.00;0.62;0.00;0.00;0.62;1.80;0.70;;;22.30;24.70;;;;;;2259093;61;20776;-66
2024/02/23 05:54:42;0.00;0.00;0.62;0.00;0.00;0.62;2.37;1.00;;;22.20;24.70;;;;;;2259199;61;20384;-67
2024/02/23 05:57:27;0.00;0.00;0.62;0.00;0.00;0.62;2.40;1.07;;;22.20;24.60;;;;;;2259451;61;20390;-67
2024/02/23 06:00:14;0.00;0.00;0.62;0.00;0.00;0.62;2.03;0.90;;;22.20;24.70;;;;;;2259055;61;20895;-67
2024/02/23 06:03:00;0.00;0.00;0.62;0.00;0.00;0.62;2.07;0.90;;;22.20;24.60;;;;;;2259558;61;20365;-69
2024/02/23 06:05:45;0.00;0.00;0.62;0.00;0.00;0.62;1.47;0.73;;;22.20;24.60;;;;;;2259252;61;20432;-66
2024/02/23 06:08:30;0.00;0.00;0.62;0.00;0.00;0.62;1.77;0.87;;;22.20;24.50;;;;;;2258875;61;20412;-67
2024/02/23 06:11:15;0.00;0.00;0.62;0.00;0.00;0.62;2.80;1.10;;;22.20;24.50;;;;;;2259805;61;20893;-67
2024/02/23 06:13:59;0.00;0.00;0.62;0.00;0.00;0.62;2.17;0.97;;;22.20;24.50;;;;;;2263072;61;20367;-68
2024/02/23 06:16:44;0.00;0.00;0.62;0.00;0.00;0.62;1.90;1.13;;;22.20;24.50;;;;;;2263126;61;20419;-68
2024/02/23 06:19:30;0.00;0.00;0.62;0.00;0.00;0.62;2.10;1.10;;;22.20;24.50;;;;;;2263557;61;20356;-67
2024/02/23 06:22:20;0.00;0.00;0.62;0.00;0.00;0.62;2.40;1.60;;;22.20;24.50;;;;;;2262754;61;20376;-67
2024/02/23 06:25:06;0.00;0.00;0.62;0.00;0.00;0.62;3.40;1.53;;;22.20;24.50;;;;;;2263420;61;20379;-67
2024/02/23 06:27:51;0.00;0.00;0.62;0.00;0.00;0.62;2.47;1.30;;;22.20;24.50;;;;;;2263192;61;20902;-67
2024/02/23 06:30:36;0.00;0.00;0.62;0.00;0.00;0.62;2.40;1.43;;;22.20;24.50;;;;;;2262789;61;20367;-67
2024/02/23 06:33:20;0.00;0.00;0.62;0.00;0.00;0.62;2.50;1.60;;;22.20;24.50;;;;;;2263358;61;20364;-67
2024/02/23 06:36:07;0.00;0.00;0.62;0.00;0.00;0.62;2.20;1.30;;;22.20;24.50;;;;;;2263042;61;20929;-68
2024/02/23 06:38:52;0.00;0.00;0.62;0.00;0.00;0.62;3.53;1.90;;;22.20;24.50;;;;;;2263509;61;20406;-67
2024/02/23 06:41:38;0.00;0.00;0.62;0.00;0.00;0.62;2.50;1.40;;;22.20;24.50;;;;;;2263478;61;20403;-67
2024/02/23 06:44:24;0.00;0.00;0.62;0.00;0.00;0.62;2.70;1.50;;;22.20;24.50;;;;;;2262853;61;20548;-68
2024/02/23 06:47:08;0.00;0.00;0.62;0.00;0.00;0.62;3.00;1.30;;;22.20;24.50;;;;;;2261393;61;20420;-68
2024/02/23 06:49:53;0.00;0.00;0.62;0.00;0.00;0.62;4.33;1.73;;;22.20;25.10;;;;;;2259169;61;20388;-67
2024/02/23 06:52:38;0.00;0.00;0.62;0.00;0.00;0.62;2.00;1.33;;;22.20;24.60;;;;;;2258846;61;20364;-67
2024/02/23 06:55:23;0.00;0.00;0.62;0.00;0.00;0.62;3.43;2.00;;;22.20;24.50;;;;;;2259292;61;20847;-67
2024/02/23 06:58:09;0.00;0.00;0.62;0.00;0.00;0.62;2.67;1.40;;;22.20;24.60;;;;;;2259015;61;20939;-68
2024/02/23 07:00:54;0.00;0.00;0.62;0.00;0.00;0.62;2.87;1.70;;;22.10;24.50;;;;;;2255860;61;20782;-67
2024/02/23 07:03:41;0.00;0.00;0.62;0.00;0.00;0.62;2.87;2.03;;;22.10;24.50;;;;;;2256085;61;20373;-67
2024/02/23 07:06:25;0.00;0.00;0.62;0.00;0.00;0.62;3.27;2.17;;;22.10;24.60;;;;;;2258673;61;20420;-67
2024/02/23 07:09:12;0.00;0.00;0.62;0.00;0.00;0.62;3.83;2.50;;;22.10;24.60;;;;;;2259112;61;20412;-67
2024/02/23 07:11:57;0.00;0.00;0.62;0.00;0.00;0.62;5.50;3.40;;;22.10;24.60;;;;;;2261128;61;21016;-67
2024/02/23 07:14:42;0.00;0.00;0.62;0.00;0.00;0.62;4.27;2.97;;;22.10;24.70;;;;;;2260165;61;20420;-67
2024/02/23 07:17:27;0.00;0.00;0.62;0.00;0.00;0.62;3.83;2.83;;;22.10;24.70;;;;;;2263883;61;20743;-67
2024/02/23 07:20:13;0.00;0.00;0.62;0.00;0.00;0.62;5.13;3.23;;;22.10;24.70;;;;;;2264198;61;20359;-67
2024/02/23 07:22:58;0.00;0.00;0.62;0.00;0.00;0.62;5.07;3.30;;;22.10;24.70;;;;;;2263722;61;20418;-67
2024/02/23 07:25:44;0.00;0.00;0.62;0.00;0.00;0.62;5.13;3.10;;;22.10;24.70;;;;;;2264015;61;20387;-67
2024/02/23 07:28:28;0.00;0.00;0.62;0.00;0.00;0.62;4.60;3.77;;;22.10;24.80;;;;;;2263508;61;20431;-67
2024/02/23 07:31:13;0.00;0.00;0.62;0.00;0.00;0.62;5.27;3.03;;;22.10;24.70;;;;;;2263937;61;21063;-67
2024/02/23 07:33:57;0.00;0.00;0.62;0.00;0.00;0.62;4.30;2.77;;;22.10;24.80;;;;;;2260687;61;20363;-67
2024/02/23 07:36:43;0.00;0.00;0.62;0.00;0.00;0.62;5.03;3.47;;;22.10;24.80;;;;;;2263314;61;20359;-67
2024/02/23 07:39:27;0.00;0.00;0.62;0.00;0.00;0.62;4.93;3.40;;;22.10;24.80;;;;;;2263751;61;20431;-67
2024/02/23 07:42:18;0.00;0.00;0.62;0.00;0.00;0.62;4.73;2.80;;;22.10;24.80;;;;;;2263917;61;20415;-67
2024/02/23 07:45:04;0.00;0.00;0.62;0.00;0.00;0.62;6.37;3.50;;;22.10;24.80;;;;;;2263385;61;20423;-67
2024/02/23 07:47:48;0.00;0.00;0.62;0.00;0.00;0.62;4.10;3.23;;;22.10;24.80;;;;;;2254836;61;20373;-67
2024/02/23 07:50:33;0.00;0.00;0.62;0.00;0.00;0.62;5.47;3.07;;;22.00;24.70;;;;;;2259556;61;20357;-66
2024/02/23 07:53:17;0.00;0.00;0.62;0.00;0.00;0.62;4.20;2.90;;;22.10;24.80;;;;;;2259779;61;20950;-69
2024/02/23 07:56:04;0.00;0.00;0.62;0.00;0.00;0.62;4.50;3.20;;;22.10;24.80;;;;;;2256415;61;20385;-69
2024/02/23 07:58:51;0.00;0.00;0.62;0.00;0.00;0.62;5.20;3.30;;;22.10;24.80;;;;;;2259254;61;20415;-68
2024/02/23 08:01:36;0.00;0.00;0.62;0.00;0.00;0.62;6.00;3.47;;;22.10;24.80;;;;;;2259832;61;20832;-68
2024/02/23 08:04:20;0.00;0.00;0.62;0.00;0.00;0.62;4.70;3.23;;;22.00;24.70;;;;;;2259945;61;20416;-68
2024/02/23 08:07:05;0.00;0.00;0.62;0.00;0.00;0.62;3.93;2.80;;;22.10;24.70;;;;;;2259332;61;20364;-68
2024/02/23 08:09:50;0.00;0.00;0.62;0.00;0.00;0.62;4.37;2.80;;;22.00;24.70;;;;;;2256546;61;20404;-68
2024/02/23 08:12:34;0.00;0.00;0.62;0.00;0.00;0.62;3.87;3.20;;;22.00;24.70;;;;;;2261881;61;20380;-68
2024/02/23 08:15:20;0.00;0.00;0.62;0.00;0.00;0.62;4.90;2.93;;;22.00;24.70;;;;;;2263709;61;20786;-68
2024/02/23 08:18:05;0.00;0.00;0.62;0.00;0.00;0.62;3.90;2.90;;;22.00;24.70;;;;;;2260534;61;20372;-68
2024/02/23 08:20:50;0.00;0.00;0.62;0.00;0.00;0.62;5.47;3.20;;;22.10;24.80;;;;;;2263259;61;20407;-68
2024/02/23 08:23:35;0.00;0.00;0.62;0.00;0.00;0.62;4.10;3.03;;;22.00;24.80;;;;;;2263509;61;20379;-68
2024/02/23 08:26:20;0.00;0.00;0.62;0.00;0.00;0.62;4.70;3.20;;;22.10;24.80;;;;;;2263633;61;20363;-68
2024/02/23 08:29:05;0.00;0.00;0.62;0.00;0.00;0.62;4.60;3.23;;;22.00;24.80;;;;;;2263138;61;20391;-68
2024/02/23 08:31:51;0.00;0.00;0.62;0.00;0.00;0.62;5.53;4.00;;;22.10;24.80;;;;;;2263828;61;20360;-68
2024/02/23 08:34:35;0.00;0.00;0.62;0.00;0.00;0.62;5.80;3.50;;;22.00;24.80;;;;;;2263335;61;20396;-69
2024/02/23 08:37:20;0.00;0.00;0.62;0.00;0.00;0.62;5.30;3.53;;;22.00;24.80;;;;;;2263604;61;20404;-69
2024/02/23 08:40:07;0.00;0.00;0.62;0.00;0.00;0.62;5.37;3.47;;;22.10;24.80;;;;;;2263869;61;20440;-68
2024/02/23 08:42:52;0.00;0.00;0.62;0.00;0.00;0.62;4.60;3.33;;;22.00;24.80;;;;;;2263302;61;20367;-68
2024/02/23 08:45:36;0.00;0.00;0.62;0.00;0.00;0.62;4.80;2.90;;;22.00;24.70;;;;;;2263663;61;20927;-68
2024/02/23 08:48:22;0.00;0.00;0.62;0.00;0.00;0.62;4.43;2.90;;;22.00;24.80;;;;;;2260065;61;20430;-68
2024/02/23 08:51:07;0.00;0.00;0.62;0.00;0.00;0.62;4.17;3.40;;;22.10;24.90;;;;;;2259012;61;20411;-69
2024/02/23 08:53:51;0.00;0.00;0.62;0.00;0.00;0.62;5.27;3.17;;;22.10;25.00;;;;;;2259658;61;20780;-68
2024/02/23 08:56:38;0.00;0.00;0.62;0.00;0.00;0.62;4.13;3.07;;;22.00;24.90;;;;;;2259284;61;20907;-68
2024/02/23 08:59:23;0.00;0.00;0.62;0.00;0.00;0.62;3.57;3.07;;;22.10;24.90;;;;;;2259559;61;20361;-68
2024/02/23 09:02:09;0.00;0.00;0.62;0.00;0.00;0.62;3.57;2.60;;;22.10;24.90;;;;;;2259884;61;20396;-68
2024/02/23 09:04:55;0.00;0.00;0.62;0.00;0.00;0.62;3.90;3.10;;;22.10;24.90;;;;;;2259050;61;21189;-68
2024/02/23 09:07:40;0.00;0.00;0.62;0.00;0.00;0.62;6.13;3.57;;;22.10;24.80;;;;;;2259449;61;20376;-68
2024/02/23 09:10:25;0.00;0.00;0.62;0.00;0.00;0.62;4.27;3.30;;;22.10;24.80;;;;;;2259694;61;20365;-68
2024/02/23 09:13:11;0.00;0.00;0.62;0.00;0.00;0.62;4.33;3.13;;;22.10;24.80;;;;;;2262557;61;20902;-68
2024/02/23 09:15:56;0.00;0.00;0.62;0.00;0.00;0.62;4.43;3.30;;;22.10;24.80;;;;;;2263478;61;20387;-68
2024/02/23 09:18:41;0.00;0.00;0.62;0.00;0.00;0.62;3.97;2.67;;;22.10;24.90;;;;;;2263509;61;20393;-68
2024/02/23 09:21:26;0.00;0.00;0.62;0.00;0.00;0.62;4.63;3.40;;;22.10;24.90;;;;;;2263611;61;20364;-67
2024/02/23 09:24:11;0.00;0.00;0.62;0.00;0.00;0.62;4.30;3.20;;;22.10;24.90;;;;;;2264016;61;20986;-68
2024/02/23 09:26:56;0.00;0.00;0.62;0.00;0.00;0.62;4.13;3.23;;;22.10;25.00;;;;;;2263324;61;20367;-67
2024/02/23 09:29:44;0.00;0.00;0.62;0.00;0.00;0.62;4.47;3.03;;;22.10;25.00;;;;;;2263549;61;20384;-68
2024/02/23 09:32:29;0.00;0.00;0.62;0.00;0.00;0.62;4.03;3.00;;;22.10;25.00;;;;;;2263888;61;20368;-68
2024/02/23 09:35:13;0.00;0.00;0.62;0.00;0.00;0.62;4.20;3.03;;;22.10;25.00;;;;;;2263086;61;20961;-68
2024/02/23 09:38:00;0.00;0.00;0.62;0.00;0.00;0.62;3.17;2.33;;;22.10;25.10;;;;;;2263681;61;20363;-68
2024/02/23 09:40:44;0.00;0.00;0.62;0.00;0.00;0.62;4.57;3.57;;;22.10;25.10;;;;;;2263786;61;20411;-68
2024/02/23 09:43:31;0.00;0.00;0.62;0.00;0.00;0.62;5.30;2.87;;;22.10;25.70;;;;;;2263726;61;20395;-68
2024/02/23 09:46:17;0.00;0.00;0.62;0.00;0.00;0.62;3.40;2.43;;;22.10;25.10;;;;;;2263119;61;20738;-68
2024/02/23 09:49:03;0.00;0.00;0.62;0.00;0.00;0.62;3.73;2.63;;;22.10;25.10;;;;;;2259100;61;20388;-67
2024/02/23 09:51:49;0.00;0.00;0.62;0.00;0.00;0.62;3.97;2.57;;;22.20;25.20;;;;;;2259438;61;20467;-67
2024/02/23 09:54:36;0.00;0.00;0.62;0.00;0.00;0.62;4.10;2.90;;;22.20;25.20;;;;;;2259364;61;20428;-67
2024/02/23 09:57:22;0.00;0.00;0.62;0.00;0.00;0.62;5.00;2.90;;;22.20;25.20;;;;;;2258803;61;20692;-68
2024/02/23 10:00:09;0.00;0.00;0.62;0.00;0.00;0.62;4.00;2.77;;;22.20;25.20;;;;;;2259371;61;20443;-68
2024/02/23 10:02:58;0.00;0.00;0.62;0.00;0.00;0.62;3.03;1.87;;;22.20;25.20;;;;;;2259330;61;20463;-68
2024/02/23 10:05:44;0.00;0.00;0.62;0.00;0.00;0.62;4.30;2.93;;;22.20;25.20;;;;;;2259057;61;20798;-68
2024/02/23 10:08:29;0.00;0.00;0.62;0.00;0.00;0.62;4.00;2.67;;;22.20;25.20;;;;;;2259394;61;20395;-68
2024/02/23 10:11:18;0.00;0.00;0.62;0.00;0.00;0.62;3.00;2.03;;;22.20;25.10;;;;;;2259215;61;20401;-68
2024/02/23 10:14:02;0.00;0.00;0.62;0.00;0.00;0.62;3.03;2.43;;;22.20;25.10;;;;;;2263251;61;20365;-68
2024/02/23 10:16:48;0.00;0.00;0.62;0.00;0.00;0.62;3.27;2.07;;;22.20;25.10;;;;;;2263446;61;20414;-68
2024/02/23 10:19:34;0.00;0.00;0.62;0.00;0.00;0.62;3.30;2.13;;;22.20;25.10;;;;;;2262862;61;20355;-68
2024/02/23 10:22:20;0.00;0.00;0.62;0.00;0.00;0.62;3.70;2.90;;;22.20;25.20;;;;;;2263393;61;20363;-68
2024/02/23 10:25:05;0.00;0.00;0.62;0.00;0.00;0.62;3.47;2.10;;;22.20;25.10;;;;;;2263170;61;20406;-68
2024/02/23 10:27:51;0.00;0.00;0.62;0.00;0.00;0.62;3.53;1.93;;;22.20;25.10;;;;;;2262937;61;20444;-68
2024/02/23 10:30:38;0.00;0.00;0.62;0.00;0.00;0.62;3.83;2.00;;;22.20;25.10;;;;;;2263401;61;20945;-68
2024/02/23 10:33:23;0.00;0.00;0.62;0.00;0.00;0.62;2.93;1.70;;;22.30;25.20;;;;;;2263027;61;20824;-68
2024/02/23 10:36:09;0.00;0.00;0.62;0.00;0.00;0.62;3.50;2.30;;;22.30;25.20;;;;;;2263030;61;20500;-68
2024/02/23 10:38:58;0.00;0.00;0.62;0.00;0.00;0.62;2.40;1.90;;;22.30;25.20;;;;;;2263479;61;20371;-68
2024/02/23 10:41:48;0.00;0.00;0.62;0.00;0.00;0.62;3.00;2.37;;;22.30;25.20;;;;;;2262836;61;20414;-68
2024/02/23 10:44:35;0.00;0.00;0.62;0.00;0.00;0.62;3.43;2.30;;;22.30;25.20;;;;;;2263266;61;20990;-68
2024/02/23 10:47:22;0.00;0.00;0.62;0.00;0.00;0.62;3.13;2.33;;;22.40;25.20;;;;;;2260941;61;20377;-68
2024/02/23 10:50:09;0.00;0.00;0.62;0.00;0.00;0.62;5.53;2.57;;;22.40;25.20;;;;;;2258906;61;20459;-68
2024/02/23 10:52:55;0.00;0.00;0.62;0.00;0.00;0.62;4.60;3.40;;;22.40;25.20;;;;;;2259181;61;20419;-68